map of BWH home
Great Circle Mapper logo
BWH - Airport
Location
City:  Butterworth, Penang, Malaysia
Name:RMAF Butterworth
ICAO / IATA:WMKB / BWH

Details
Type:Airport (Aerodrome, Airfield)
Use:Military, International (customs port of entry)
Latitude:527'57"N (5.465917)
Longitude:10023'28"E (100.391167)
Datum:WGS 1984
Elevation:11 ft (3 m)
Runways:1
Longest:8000 × 150 ft (2438 × 45.5 m), paved

Time
Time Zone:UTC+8
Local Time:

Weather
METAR:WMKB 192000Z 08003KT 9000 FEW025 SCT140 BKN270 26/25 Q1007 NOSIG

Related Locations
Nearby:
Farthest:SPAB: 12439 mi / 20019 km
Huancabamba, PE

Find:

   beyond  
but within

Other Information
Maps:
NOTAMs:
Links:
Sources:

  
flag of Malaysia
flag of Penang
  

Sectional Chart

Flight Planning
at skyvector.com

Satellite Image

Google Maps Satellite View

 

Copyright © 2004-2014 Karl L. Swartz. All rights reserved.
The Great Circle Mapper name and logo are trademarks of the Great Circle Mapper.
All other trademarks mentioned herein belong to their respective owners.
Please see credits for attibutions and further copyright information.

  Follow gcmap on Facebook Follow gcmap on Twitter

hCard Microformat

Geo Microformat